Green Bay (GRB/KGRB)

Map

Destinations

Information

Location
Green Bay, WI
Local Time
13:20 / 1:20 pm
GMT Time
18:20 / 6:20 pm
Gates
No FAA reported delays
METAR KGRB 201753Z 15020G28KT 10SM CLR 25/19 A2984 RMK AO2 PK WND 15029/1737 SLP103 T02500194 10250 20172 58012
TAF KGRB 201737Z 2018/2118 16015G22KT P6SM SCT020 BKN080 TEMPO 2020/2024 BKN020 FM210000 20006KT P6SM VCSH SCT020 BKN035 TEMPO 2100/2104 3SM TSRA BKN015CB FM210500 35005KT 4SM BR BKN015 BKN025 FM210900 04007KT 3SM BR BKN008 BKN015 FM211500 07007KT P6SM BKN015